sensor_id;sensor_type;location;lat;lon;timestamp;pressure;altitude;pressure_sealevel;temperature;humidity
73024;BME280;61199;47.526;8.538;2023-08-20T00:00:53;96759.25;;;26.87;52.79
73024;BME280;61199;47.526;8.538;2023-08-20T00:03:19;96763.19;;;27.03;52.18
73024;BME280;61199;47.526;8.538;2023-08-20T00:05:46;96755.53;;;27.18;52.27
73024;BME280;61199;47.526;8.538;2023-08-20T00:08:13;96757.56;;;27.34;51.66
73024;BME280;61199;47.526;8.538;2023-08-20T00:10:39;96755.59;;;27.41;51.00
73024;BME280;61199;47.526;8.538;2023-08-20T00:13:05;96754.56;;;27.53;50.58
73024;BME280;61199;47.526;8.538;2023-08-20T00:15:32;96755.97;;;27.67;50.62
73024;BME280;61199;47.526;8.538;2023-08-20T00:17:59;96749.88;;;27.49;51.05
73024;BME280;61199;47.526;8.538;2023-08-20T00:20:25;96755.94;;;27.33;51.11
73024;BME280;61199;47.526;8.538;2023-08-20T00:22:52;96750.22;;;27.52;50.97
73024;BME280;61199;47.526;8.538;2023-08-20T00:25:19;96761.81;;;27.53;50.66
73024;BME280;61199;47.526;8.538;2023-08-20T00:27:45;96765.47;;;27.58;50.35
73024;BME280;61199;47.526;8.538;2023-08-20T00:30:12;96765.25;;;27.60;50.72
73024;BME280;61199;47.526;8.538;2023-08-20T00:32:38;96785.13;;;27.59;50.78
73024;BME280;61199;47.526;8.538;2023-08-20T00:35:05;96774.44;;;27.52;51.51
73024;BME280;61199;47.526;8.538;2023-08-20T00:37:34;96774.44;;;27.41;51.76
73024;BME280;61199;47.526;8.538;2023-08-20T00:40:01;96786.38;;;27.45;51.52
73024;BME280;61199;47.526;8.538;2023-08-20T00:42:27;96788.97;;;27.51;51.51
73024;BME280;61199;47.526;8.538;2023-08-20T00:44:53;96787.44;;;27.44;52.09
73024;BME280;61199;47.526;8.538;2023-08-20T00:47:20;96786.13;;;27.35;51.65
73024;BME280;61199;47.526;8.538;2023-08-20T00:49:47;96779.25;;;27.39;51.63
73024;BME280;61199;47.526;8.538;2023-08-20T00:52:17;96783.41;;;27.05;52.63
73024;BME280;61199;47.526;8.538;2023-08-20T00:54:45;96779.66;;;26.77;53.78
73024;BME280;61199;47.526;8.538;2023-08-20T00:57:14;96783.84;;;26.73;53.21
73024;BME280;61199;47.526;8.538;2023-08-20T00:59:41;96777.44;;;26.56;54.18
73024;BME280;61199;47.526;8.538;2023-08-20T01:02:08;96776.25;;;26.52;54.53
73024;BME280;61199;47.526;8.538;2023-08-20T01:04:34;96772.03;;;26.38;54.57
73024;BME280;61199;47.526;8.538;2023-08-20T01:12:43;96778.75;;;26.29;55.33
73024;BME280;61199;47.526;8.538;2023-08-20T01:15:10;96778.31;;;26.50;54.98
73024;BME280;61199;47.526;8.538;2023-08-20T01:17:41;96781.16;;;26.55;54.68
73024;BME280;61199;47.526;8.538;2023-08-20T01:20:11;96785.66;;;26.61;54.77
73024;BME280;61199;47.526;8.538;2023-08-20T01:23:29;96786.69;;;26.42;54.91
73024;BME280;61199;47.526;8.538;2023-08-20T01:26:01;96791.06;;;26.18;55.43
73024;BME280;61199;47.526;8.538;2023-08-20T01:28:34;96793.38;;;26.33;55.26
73024;BME280;61199;47.526;8.538;2023-08-20T01:31:01;96793.09;;;26.41;55.23
73024;BME280;61199;47.526;8.538;2023-08-20T01:33:29;96791.28;;;26.35;55.26
73024;BME280;61199;47.526;8.538;2023-08-20T01:35:55;96780.84;;;26.45;55.24
73024;BME280;61199;47.526;8.538;2023-08-20T01:38:22;96785.47;;;26.20;55.76
73024;BME280;61199;47.526;8.538;2023-08-20T01:40:48;96785.78;;;25.87;56.20
73024;BME280;61199;47.526;8.538;2023-08-20T01:43:15;96779.63;;;26.05;56.10
73024;BME280;61199;47.526;8.538;2023-08-20T01:45:41;96786.06;;;26.22;55.50
73024;BME280;61199;47.526;8.538;2023-08-20T01:48:08;96783.09;;;26.30;55.45
73024;BME280;61199;47.526;8.538;2023-08-20T01:50:35;96784.28;;;26.34;55.36
73024;BME280;61199;47.526;8.538;2023-08-20T01:53:02;96783.81;;;26.37;55.09
73024;BME280;61199;47.526;8.538;2023-08-20T01:55:29;96782.81;;;26.56;54.84
73024;BME280;61199;47.526;8.538;2023-08-20T01:57:58;96778.47;;;26.55;54.73
73024;BME280;61199;47.526;8.538;2023-08-20T02:00:24;96784.00;;;26.60;54.61
73024;BME280;61199;47.526;8.538;2023-08-20T02:02:51;96789.00;;;26.56;54.86
73024;BME280;61199;47.526;8.538;2023-08-20T02:05:17;96801.03;;;26.54;54.54
73024;BME280;61199;47.526;8.538;2023-08-20T02:07:44;96798.63;;;26.64;54.38
73024;BME280;61199;47.526;8.538;2023-08-20T02:10:10;96802.97;;;26.65;54.31
73024;BME280;61199;47.526;8.538;2023-08-20T02:12:36;96796.03;;;26.57;55.00
73024;BME280;61199;47.526;8.538;2023-08-20T02:15:03;96795.50;;;26.49;55.13
73024;BME280;61199;47.526;8.538;2023-08-20T02:17:30;96789.06;;;26.50;55.87
73024;BME280;61199;47.526;8.538;2023-08-20T02:19:56;96789.88;;;26.50;55.21
73024;BME280;61199;47.526;8.538;2023-08-20T02:22:23;96786.69;;;26.42;55.09
73024;BME280;61199;47.526;8.538;2023-08-20T02:24:49;96781.59;;;26.34;55.00
73024;BME280;61199;47.526;8.538;2023-08-20T02:27:15;96786.66;;;26.24;55.77
73024;BME280;61199;47.526;8.538;2023-08-20T02:29:42;96787.25;;;26.26;55.57
73024;BME280;61199;47.526;8.538;2023-08-20T02:32:08;96795.53;;;26.24;55.60
73024;BME280;61199;47.526;8.538;2023-08-20T02:34:35;96795.78;;;26.23;55.57
73024;BME280;61199;47.526;8.538;2023-08-20T02:37:02;96794.28;;;26.27;55.54
73024;BME280;61199;47.526;8.538;2023-08-20T02:39:28;96796.00;;;26.21;55.89
73024;BME280;61199;47.526;8.538;2023-08-20T02:41:54;96800.06;;;26.06;56.46
73024;BME280;61199;47.526;8.538;2023-08-20T02:44:21;96801.56;;;26.02;56.42
73024;BME280;61199;47.526;8.538;2023-08-20T02:46:47;96805.81;;;26.09;56.36
73024;BME280;61199;47.526;8.538;2023-08-20T02:49:14;96804.09;;;25.97;56.77
73024;BME280;61199;47.526;8.538;2023-08-20T02:51:42;96815.53;;;25.86;56.71
73024;BME280;61199;47.526;8.538;2023-08-20T02:54:09;96820.47;;;25.89;57.16
73024;BME280;61199;47.526;8.538;2023-08-20T02:56:35;96818.84;;;25.88;56.71
73024;BME280;61199;47.526;8.538;2023-08-20T02:59:02;96814.28;;;25.82;56.69
73024;BME280;61199;47.526;8.538;2023-08-20T03:01:28;96818.69;;;25.76;57.05
73024;BME280;61199;47.526;8.538;2023-08-20T03:03:55;96817.81;;;25.82;57.01
73024;BME280;61199;47.526;8.538;2023-08-20T03:06:21;96816.16;;;25.88;56.91
73024;BME280;61199;47.526;8.538;2023-08-20T03:08:48;96816.56;;;25.85;57.10
73024;BME280;61199;47.526;8.538;2023-08-20T03:11:14;96813.25;;;25.83;57.21
73024;BME280;61199;47.526;8.538;2023-08-20T03:13:41;96823.56;;;25.86;56.71
73024;BME280;61199;47.526;8.538;2023-08-20T03:16:07;96827.41;;;25.72;57.50
73024;BME280;61199;47.526;8.538;2023-08-20T03:18:33;96832.47;;;25.55;57.54
73024;BME280;61199;47.526;8.538;2023-08-20T03:21:00;96831.50;;;25.74;57.15
73024;BME280;61199;47.526;8.538;2023-08-20T03:23:26;96834.78;;;25.76;57.08
73024;BME280;61199;47.526;8.538;2023-08-20T03:25:53;96837.84;;;25.55;57.39
73024;BME280;61199;47.526;8.538;2023-08-20T03:28:21;96842.13;;;25.63;57.51
73024;BME280;61199;47.526;8.538;2023-08-20T03:30:47;96842.03;;;25.51;57.89
73024;BME280;61199;47.526;8.538;2023-08-20T03:33:13;96843.59;;;25.59;57.60
73024;BME280;61199;47.526;8.538;2023-08-20T03:35:41;96840.78;;;25.47;58.26
73024;BME280;61199;47.526;8.538;2023-08-20T03:38:07;96841.19;;;25.51;58.01
73024;BME280;61199;47.526;8.538;2023-08-20T03:40:33;96843.41;;;25.54;57.89
73024;BME280;61199;47.526;8.538;2023-08-20T03:43:00;96845.94;;;25.49;58.30
73024;BME280;61199;47.526;8.538;2023-08-20T03:45:28;96845.16;;;25.42;58.72
73024;BME280;61199;47.526;8.538;2023-08-20T03:47:56;96841.66;;;25.41;58.25
73024;BME280;61199;47.526;8.538;2023-08-20T03:50:22;96840.00;;;25.47;58.61
73024;BME280;61199;47.526;8.538;2023-08-20T03:52:49;96838.75;;;25.43;58.55
73024;BME280;61199;47.526;8.538;2023-08-20T03:55:15;96840.84;;;25.41;58.62
73024;BME280;61199;47.526;8.538;2023-08-20T03:57:42;96842.28;;;25.37;58.18
73024;BME280;61199;47.526;8.538;2023-08-20T04:00:09;96842.91;;;25.39;58.40
73024;BME280;61199;47.526;8.538;2023-08-20T04:02:36;96841.00;;;25.46;58.46
73024;BME280;61199;47.526;8.538;2023-08-20T04:05:02;96844.81;;;25.32;59.10
73024;BME280;61199;47.526;8.538;2023-08-20T04:07:29;96856.22;;;25.14;59.81
73024;BME280;61199;47.526;8.538;2023-08-20T04:09:55;96864.91;;;25.10;59.83
73024;BME280;61199;47.526;8.538;2023-08-20T04:12:22;96858.78;;;25.03;60.24
73024;BME280;61199;47.526;8.538;2023-08-20T04:14:48;96861.69;;;24.95;60.28
73024;BME280;61199;47.526;8.538;2023-08-20T04:17:15;96865.38;;;25.00;59.93
73024;BME280;61199;47.526;8.538;2023-08-20T04:19:41;96866.44;;;24.93;60.15
73024;BME280;61199;47.526;8.538;2023-08-20T04:22:07;96854.69;;;24.94;60.30
73024;BME280;61199;47.526;8.538;2023-08-20T04:24:34;96859.16;;;25.06;59.60
73024;BME280;61199;47.526;8.538;2023-08-20T04:27:00;96857.72;;;25.04;59.66
73024;BME280;61199;47.526;8.538;2023-08-20T04:29:27;96856.75;;;24.92;60.36
73024;BME280;61199;47.526;8.538;2023-08-20T04:31:54;96854.25;;;24.97;59.97
73024;BME280;61199;47.526;8.538;2023-08-20T04:34:20;96852.19;;;24.92;60.12
73024;BME280;61199;47.526;8.538;2023-08-20T04:36:46;96850.53;;;24.98;59.81
73024;BME280;61199;47.526;8.538;2023-08-20T04:39:13;96846.41;;;25.02;59.33
73024;BME280;61199;47.526;8.538;2023-08-20T04:41:39;96850.47;;;25.11;59.49
73024;BME280;61199;47.526;8.538;2023-08-20T04:44:06;96841.03;;;25.02;59.44
73024;BME280;61199;47.526;8.538;2023-08-20T04:46:32;96850.09;;;25.01;59.55
73024;BME280;61199;47.526;8.538;2023-08-20T04:48:58;96847.03;;;24.97;60.07
73024;BME280;61199;47.526;8.538;2023-08-20T04:51:25;96854.44;;;25.02;59.69
73024;BME280;61199;47.526;8.538;2023-08-20T04:53:51;96852.19;;;24.92;59.89
73024;BME280;61199;47.526;8.538;2023-08-20T04:56:17;96849.47;;;24.42;61.67
73024;BME280;61199;47.526;8.538;2023-08-20T04:58:45;96856.47;;;24.43;61.60
73024;BME280;61199;47.526;8.538;2023-08-20T05:01:11;96859.81;;;24.26;62.10
73024;BME280;61199;47.526;8.538;2023-08-20T05:03:38;96863.25;;;24.45;61.85
73024;BME280;61199;47.526;8.538;2023-08-20T05:06:04;96863.88;;;24.54;61.46
73024;BME280;61199;47.526;8.538;2023-08-20T05:08:30;96858.09;;;24.63;60.85
73024;BME280;61199;47.526;8.538;2023-08-20T05:10:57;96859.53;;;24.53;61.57
73024;BME280;61199;47.526;8.538;2023-08-20T05:13:23;96853.97;;;24.61;61.52
73024;BME280;61199;47.526;8.538;2023-08-20T05:15:50;96855.19;;;24.71;60.94
73024;BME280;61199;47.526;8.538;2023-08-20T05:18:16;96867.50;;;24.79;60.65
73024;BME280;61199;47.526;8.538;2023-08-20T05:20:43;96873.72;;;24.73;60.80
73024;BME280;61199;47.526;8.538;2023-08-20T05:23:09;96876.00;;;24.76;61.02
73024;BME280;61199;47.526;8.538;2023-08-20T05:25:36;96879.50;;;24.70;61.06
73024;BME280;61199;47.526;8.538;2023-08-20T05:28:02;96883.19;;;24.75;60.56
73024;BME280;61199;47.526;8.538;2023-08-20T05:30:29;96881.16;;;24.71;61.30
73024;BME280;61199;47.526;8.538;2023-08-20T05:32:55;96886.09;;;24.74;61.30
73024;BME280;61199;47.526;8.538;2023-08-20T05:35:22;96883.81;;;24.77;60.80
73024;BME280;61199;47.526;8.538;2023-08-20T05:37:48;96882.34;;;24.88;60.76
73024;BME280;61199;47.526;8.538;2023-08-20T05:40:15;96881.91;;;24.91;60.83
73024;BME280;61199;47.526;8.538;2023-08-20T05:42:41;96884.34;;;24.99;60.46
73024;BME280;61199;47.526;8.538;2023-08-20T05:45:10;96892.81;;;24.96;60.81
73024;BME280;61199;47.526;8.538;2023-08-20T05:47:37;96888.66;;;25.00;60.50
73024;BME280;61199;47.526;8.538;2023-08-20T05:50:04;96896.31;;;25.03;60.64
73024;BME280;61199;47.526;8.538;2023-08-20T05:52:30;96895.44;;;25.09;60.27
73024;BME280;61199;47.526;8.538;2023-08-20T05:54:57;96890.06;;;25.09;60.04
73024;BME280;61199;47.526;8.538;2023-08-20T05:57:23;96894.63;;;25.08;60.39
73024;BME280;61199;47.526;8.538;2023-08-20T05:59:49;96898.13;;;25.09;60.30
73024;BME280;61199;47.526;8.538;2023-08-20T06:02:16;96900.44;;;24.99;61.12
73024;BME280;61199;47.526;8.538;2023-08-20T06:04:46;96901.25;;;25.06;60.78
73024;BME280;61199;47.526;8.538;2023-08-20T06:07:12;96906.78;;;25.17;60.15
73024;BME280;61199;47.526;8.538;2023-08-20T06:09:39;96902.00;;;25.19;60.08
73024;BME280;61199;47.526;8.538;2023-08-20T06:12:05;96903.19;;;25.36;59.59
73024;BME280;61199;47.526;8.538;2023-08-20T06:14:32;96901.59;;;25.29;60.20
73024;BME280;61199;47.526;8.538;2023-08-20T06:16:58;96893.56;;;25.22;60.30
73024;BME280;61199;47.526;8.538;2023-08-20T06:19:25;96896.63;;;25.19;60.79
73024;BME280;61199;47.526;8.538;2023-08-20T06:21:52;96895.19;;;25.17;60.43
73024;BME280;61199;47.526;8.538;2023-08-20T06:24:18;96891.28;;;25.26;60.13
73024;BME280;61199;47.526;8.538;2023-08-20T06:26:48;96893.28;;;25.37;59.46
73024;BME280;61199;47.526;8.538;2023-08-20T06:29:14;96896.59;;;25.39;59.60
73024;BME280;61199;47.526;8.538;2023-08-20T06:31:41;96900.47;;;25.43;59.67
73024;BME280;61199;47.526;8.538;2023-08-20T06:34:07;96904.94;;;25.55;59.09
73024;BME280;61199;47.526;8.538;2023-08-20T06:36:34;96898.50;;;25.63;59.45
73024;BME280;61199;47.526;8.538;2023-08-20T06:39:00;96907.13;;;25.65;59.17
73024;BME280;61199;47.526;8.538;2023-08-20T06:41:26;96902.59;;;25.65;58.97
73024;BME280;61199;47.526;8.538;2023-08-20T06:43:53;96904.69;;;25.63;59.00
73024;BME280;61199;47.526;8.538;2023-08-20T06:46:19;96913.13;;;25.67;58.88
73024;BME280;61199;47.526;8.538;2023-08-20T06:48:45;96915.00;;;25.66;59.12
73024;BME280;61199;47.526;8.538;2023-08-20T06:51:15;96916.63;;;25.67;59.02
73024;BME280;61199;47.526;8.538;2023-08-20T06:53:42;96910.41;;;25.73;58.75
73024;BME280;61199;47.526;8.538;2023-08-20T06:56:08;96912.44;;;25.78;58.78
73024;BME280;61199;47.526;8.538;2023-08-20T06:58:35;96909.28;;;25.87;58.83
73024;BME280;61199;47.526;8.538;2023-08-20T07:01:02;96910.19;;;25.75;59.04
73024;BME280;61199;47.526;8.538;2023-08-20T07:03:38;96914.13;;;25.72;58.96
73024;BME280;61199;47.526;8.538;2023-08-20T07:06:05;96918.66;;;25.72;58.40
73024;BME280;61199;47.526;8.538;2023-08-20T07:08:32;96922.47;;;25.58;59.49
73024;BME280;61199;47.526;8.538;2023-08-20T07:10:58;96921.50;;;25.83;58.24
73024;BME280;61199;47.526;8.538;2023-08-20T07:13:25;96913.59;;;25.95;57.83
73024;BME280;61199;47.526;8.538;2023-08-20T07:15:51;96909.09;;;26.13;57.77
73024;BME280;61199;47.526;8.538;2023-08-20T07:18:18;96916.81;;;26.28;57.64
73024;BME280;61199;47.526;8.538;2023-08-20T07:20:44;96917.13;;;26.20;57.78
73024;BME280;61199;47.526;8.538;2023-08-20T07:23:11;96910.25;;;26.24;57.00
73024;BME280;61199;47.526;8.538;2023-08-20T07:25:39;96914.47;;;26.38;56.39
73024;BME280;61199;47.526;8.538;2023-08-20T07:28:07;96916.75;;;26.16;56.53
73024;BME280;61199;47.526;8.538;2023-08-20T07:30:35;96917.00;;;26.33;56.29
73024;BME280;61199;47.526;8.538;2023-08-20T07:33:02;96916.72;;;26.41;56.19
73024;BME280;61199;47.526;8.538;2023-08-20T07:35:31;96918.72;;;26.27;57.07
73024;BME280;61199;47.526;8.538;2023-08-20T07:37:58;96921.13;;;26.35;56.53
73024;BME280;61199;47.526;8.538;2023-08-20T07:40:24;96915.03;;;26.22;56.68
73024;BME280;61199;47.526;8.538;2023-08-20T07:42:51;96920.22;;;26.17;57.06
73024;BME280;61199;47.526;8.538;2023-08-20T07:45:17;96914.66;;;26.18;56.16
73024;BME280;61199;47.526;8.538;2023-08-20T07:47:44;96912.78;;;26.43;54.31
73024;BME280;61199;47.526;8.538;2023-08-20T07:50:10;96918.97;;;26.44;54.79
73024;BME280;61199;47.526;8.538;2023-08-20T07:52:37;96923.56;;;26.37;54.48
73024;BME280;61199;47.526;8.538;2023-08-20T07:55:04;96918.97;;;26.44;54.96
73024;BME280;61199;47.526;8.538;2023-08-20T07:57:30;96914.25;;;26.64;54.06
73024;BME280;61199;47.526;8.538;2023-08-20T07:59:57;96919.31;;;26.54;54.19
73024;BME280;61199;47.526;8.538;2023-08-20T08:02:23;96915.22;;;26.87;53.27
73024;BME280;61199;47.526;8.538;2023-08-20T08:04:50;96914.44;;;26.87;53.21
73024;BME280;61199;47.526;8.538;2023-08-20T08:07:16;96915.31;;;26.99;53.23
73024;BME280;61199;47.526;8.538;2023-08-20T08:09:42;96912.34;;;27.25;53.01
73024;BME280;61199;47.526;8.538;2023-08-20T08:12:09;96915.00;;;27.43;52.01
73024;BME280;61199;47.526;8.538;2023-08-20T08:14:35;96913.28;;;27.48;51.99
73024;BME280;61199;47.526;8.538;2023-08-20T08:17:02;96917.38;;;27.51;52.21
73024;BME280;61199;47.526;8.538;2023-08-20T08:19:28;96913.59;;;27.70;51.69
73024;BME280;61199;47.526;8.538;2023-08-20T08:21:56;96917.06;;;27.59;51.54
73024;BME280;61199;47.526;8.538;2023-08-20T08:24:22;96918.44;;;27.50;51.72
73024;BME280;61199;47.526;8.538;2023-08-20T08:26:50;96916.44;;;27.45;52.04
73024;BME280;61199;47.526;8.538;2023-08-20T08:29:16;96916.72;;;27.55;51.90
73024;BME280;61199;47.526;8.538;2023-08-20T08:31:43;96921.78;;;27.63;51.17
73024;BME280;61199;47.526;8.538;2023-08-20T08:34:09;96929.75;;;27.70;51.64
73024;BME280;61199;47.526;8.538;2023-08-20T08:36:36;96929.75;;;27.70;51.73
73024;BME280;61199;47.526;8.538;2023-08-20T08:39:04;96926.13;;;27.93;51.03
73024;BME280;61199;47.526;8.538;2023-08-20T08:41:32;96932.31;;;27.94;50.93
73024;BME280;61199;47.526;8.538;2023-08-20T08:44:00;96930.91;;;27.91;50.79
73024;BME280;61199;47.526;8.538;2023-08-20T08:46:29;96931.91;;;27.79;50.86
73024;BME280;61199;47.526;8.538;2023-08-20T08:48:56;96930.78;;;27.87;50.50
73024;BME280;61199;47.526;8.538;2023-08-20T08:51:23;96925.28;;;27.93;50.39
73024;BME280;61199;47.526;8.538;2023-08-20T08:53:50;96929.66;;;28.05;49.88
73024;BME280;61199;47.526;8.538;2023-08-20T08:56:16;96923.72;;;28.26;49.66
73024;BME280;61199;47.526;8.538;2023-08-20T08:58:43;96929.63;;;28.46;48.97
73024;BME280;61199;47.526;8.538;2023-08-20T09:01:09;96926.59;;;28.54;49.13
73024;BME280;61199;47.526;8.538;2023-08-20T09:03:36;96925.53;;;28.55;49.18
73024;BME280;61199;47.526;8.538;2023-08-20T09:06:08;96930.44;;;28.70;48.51
73024;BME280;61199;47.526;8.538;2023-08-20T09:08:35;96926.56;;;28.89;48.18
73024;BME280;61199;47.526;8.538;2023-08-20T09:11:02;96931.75;;;28.90;48.46
73024;BME280;61199;47.526;8.538;2023-08-20T09:13:37;96917.00;;;28.93;47.91
73024;BME280;61199;47.526;8.538;2023-08-20T09:16:05;96918.13;;;29.08;47.49
73024;BME280;61199;47.526;8.538;2023-08-20T09:18:41;96913.44;;;29.15;47.40
73024;BME280;61199;47.526;8.538;2023-08-20T09:21:09;96918.66;;;29.33;46.34
73024;BME280;61199;47.526;8.538;2023-08-20T09:23:36;96914.78;;;29.29;46.67
73024;BME280;61199;47.526;8.538;2023-08-20T09:26:05;96919.22;;;29.47;45.99
73024;BME280;61199;47.526;8.538;2023-08-20T09:28:58;96913.53;;;29.60;46.54
73024;BME280;61199;47.526;8.538;2023-08-20T09:31:45;96921.44;;;29.50;46.58
73024;BME280;61199;47.526;8.538;2023-08-20T09:34:14;96913.63;;;29.25;46.83
73024;BME280;61199;47.526;8.538;2023-08-20T09:36:40;96903.22;;;29.17;47.20
73024;BME280;61199;47.526;8.538;2023-08-20T09:39:07;96914.78;;;29.29;47.05
73024;BME280;61199;47.526;8.538;2023-08-20T09:41:35;96919.25;;;29.35;47.25
73024;BME280;61199;47.526;8.538;2023-08-20T09:44:04;96926.84;;;29.38;46.97
73024;BME280;61199;47.526;8.538;2023-08-20T09:46:33;96923.94;;;29.28;46.71
73024;BME280;61199;47.526;8.538;2023-08-20T09:49:02;96929.44;;;29.45;46.96
73024;BME280;61199;47.526;8.538;2023-08-20T09:51:32;96928.34;;;29.57;47.29
73024;BME280;61199;47.526;8.538;2023-08-20T09:56:30;96920.16;;;29.80;46.36
73024;BME280;61199;47.526;8.538;2023-08-20T09:58:57;96913.41;;;29.94;46.64
73024;BME280;61199;47.526;8.538;2023-08-20T10:01:25;96908.16;;;30.04;46.76
73024;BME280;61199;47.526;8.538;2023-08-20T10:03:53;96919.53;;;30.18;46.49
73024;BME280;61199;47.526;8.538;2023-08-20T10:06:19;96911.63;;;30.33;45.76
73024;BME280;61199;47.526;8.538;2023-08-20T10:08:46;96923.44;;;30.43;45.62
73024;BME280;61199;47.526;8.538;2023-08-20T10:11:13;96912.28;;;30.56;45.21
73024;BME280;61199;47.526;8.538;2023-08-20T10:13:39;96909.28;;;30.69;45.11
73024;BME280;61199;47.526;8.538;2023-08-20T10:16:06;96912.94;;;30.80;44.47
73024;BME280;61199;47.526;8.538;2023-08-20T10:18:34;96913.25;;;30.83;44.93
73024;BME280;61199;47.526;8.538;2023-08-20T10:21:01;96916.38;;;30.92;44.17
73024;BME280;61199;47.526;8.538;2023-08-20T10:23:30;96911.81;;;30.59;44.76
73024;BME280;61199;47.526;8.538;2023-08-20T10:26:07;96912.03;;;30.58;45.08
73024;BME280;61199;47.526;8.538;2023-08-20T10:28:34;96914.34;;;30.82;44.03
73024;BME280;61199;47.526;8.538;2023-08-20T10:31:08;96906.66;;;30.96;43.96
73024;BME280;61199;47.526;8.538;2023-08-20T10:33:57;96914.00;;;30.95;43.98
73024;BME280;61199;47.526;8.538;2023-08-20T10:36:24;96909.56;;;30.89;44.58
73024;BME280;61199;47.526;8.538;2023-08-20T10:38:55;96909.91;;;30.76;44.65
73024;BME280;61199;47.526;8.538;2023-08-20T10:41:26;96899.53;;;30.90;44.68
73024;BME280;61199;47.526;8.538;2023-08-20T10:43:57;96899.66;;;30.78;44.33
73024;BME280;61199;47.526;8.538;2023-08-20T10:46:24;96899.91;;;30.77;45.22
73024;BME280;61199;47.526;8.538;2023-08-20T10:48:53;96899.88;;;30.93;43.79
73024;BME280;61199;47.526;8.538;2023-08-20T10:56:46;96896.22;;;30.66;45.33
73024;BME280;61199;47.526;8.538;2023-08-20T10:59:25;96890.34;;;30.69;44.51
73024;BME280;61199;47.526;8.538;2023-08-20T11:01:54;96889.47;;;30.85;44.58
73024;BME280;61199;47.526;8.538;2023-08-20T11:04:23;96887.59;;;30.86;44.66
73024;BME280;61199;47.526;8.538;2023-08-20T11:06:54;96888.59;;;31.01;44.03
73024;BME280;61199;47.526;8.538;2023-08-20T11:09:22;96885.47;;;31.09;43.96
73024;BME280;61199;47.526;8.538;2023-08-20T11:11:50;96883.31;;;31.11;44.10
73024;BME280;61199;47.526;8.538;2023-08-20T11:14:18;96881.88;;;31.04;43.38
73024;BME280;61199;47.526;8.538;2023-08-20T11:16:47;96880.31;;;31.29;43.77
73024;BME280;61199;47.526;8.538;2023-08-20T11:19:18;96878.91;;;31.48;42.99
73024;BME280;61199;47.526;8.538;2023-08-20T11:21:45;96874.56;;;31.68;42.27
73024;BME280;61199;47.526;8.538;2023-08-20T11:24:12;96871.50;;;31.86;41.95
73024;BME280;61199;47.526;8.538;2023-08-20T11:26:39;96876.63;;;31.83;41.99
73024;BME280;61199;47.526;8.538;2023-08-20T11:29:07;96882.22;;;32.03;41.35
73024;BME280;61199;47.526;8.538;2023-08-20T11:31:36;96875.31;;;32.17;40.79
73024;BME280;61199;47.526;8.538;2023-08-20T11:34:03;96873.34;;;32.39;40.28
73024;BME280;61199;47.526;8.538;2023-08-20T11:36:30;96868.63;;;32.61;40.21
73024;BME280;61199;47.526;8.538;2023-08-20T11:38:57;96873.56;;;32.69;39.66
73024;BME280;61199;47.526;8.538;2023-08-20T11:41:25;96870.94;;;32.79;39.95
73024;BME280;61199;47.526;8.538;2023-08-20T11:43:52;96863.75;;;32.68;40.34
73024;BME280;61199;47.526;8.538;2023-08-20T11:46:21;96864.69;;;32.78;39.69
73024;BME280;61199;47.526;8.538;2023-08-20T11:49:03;96855.53;;;32.99;38.92
73024;BME280;61199;47.526;8.538;2023-08-20T11:51:35;96863.22;;;33.17;38.52
73024;BME280;61199;47.526;8.538;2023-08-20T11:54:15;96862.78;;;33.30;38.56
73024;BME280;61199;47.526;8.538;2023-08-20T11:56:47;96858.19;;;33.36;38.23
73024;BME280;61199;47.526;8.538;2023-08-20T11:59:19;96854.16;;;33.53;38.12
73024;BME280;61199;47.526;8.538;2023-08-20T12:01:51;96854.97;;;33.59;38.08
73024;BME280;61199;47.526;8.538;2023-08-20T12:04:17;96842.53;;;33.73;37.89
73024;BME280;61199;47.526;8.538;2023-08-20T12:06:44;96841.47;;;33.84;37.27
73024;BME280;61199;47.526;8.538;2023-08-20T12:09:24;96839.00;;;33.77;37.05
73024;BME280;61199;47.526;8.538;2023-08-20T12:11:51;96840.06;;;33.66;37.57
73024;BME280;61199;47.526;8.538;2023-08-20T12:14:19;96839.22;;;33.66;37.51
73024;BME280;61199;47.526;8.538;2023-08-20T12:16:45;96834.63;;;33.66;37.36
73024;BME280;61199;47.526;8.538;2023-08-20T12:19:12;96830.88;;;33.82;36.79
73024;BME280;61199;47.526;8.538;2023-08-20T12:21:40;96825.97;;;33.84;37.19
73024;BME280;61199;47.526;8.538;2023-08-20T12:24:08;96825.16;;;33.94;36.92
73024;BME280;61199;47.526;8.538;2023-08-20T12:26:39;96833.31;;;34.09;36.78
73024;BME280;61199;47.526;8.538;2023-08-20T12:29:06;96824.34;;;34.13;36.68
73024;BME280;61199;47.526;8.538;2023-08-20T12:31:33;96818.66;;;34.30;36.71
73024;BME280;61199;47.526;8.538;2023-08-20T12:34:00;96819.16;;;34.47;36.38
73024;BME280;61199;47.526;8.538;2023-08-20T12:36:28;96822.97;;;34.56;36.00
73024;BME280;61199;47.526;8.538;2023-08-20T12:38:55;96825.72;;;34.46;35.70
73024;BME280;61199;47.526;8.538;2023-08-20T12:41:22;96823.22;;;34.59;35.81
73024;BME280;61199;47.526;8.538;2023-08-20T12:43:48;96824.03;;;34.75;35.71
73024;BME280;61199;47.526;8.538;2023-08-20T12:46:15;96821.31;;;34.65;34.87
73024;BME280;61199;47.526;8.538;2023-08-20T12:48:41;96813.94;;;34.80;34.97
73024;BME280;61199;47.526;8.538;2023-08-20T12:51:08;96813.66;;;34.82;34.33
73024;BME280;61199;47.526;8.538;2023-08-20T12:53:34;96803.34;;;34.74;34.75
73024;BME280;61199;47.526;8.538;2023-08-20T12:56:04;96807.34;;;34.96;34.47
73024;BME280;61199;47.526;8.538;2023-08-20T12:58:30;96807.66;;;34.90;34.33
73024;BME280;61199;47.526;8.538;2023-08-20T13:00:57;96802.69;;;35.06;34.05
73024;BME280;61199;47.526;8.538;2023-08-20T13:03:24;96799.88;;;35.26;33.37
73024;BME280;61199;47.526;8.538;2023-08-20T13:05:51;96792.50;;;35.32;33.54
73024;BME280;61199;47.526;8.538;2023-08-20T13:08:17;96778.81;;;35.42;32.74
73024;BME280;61199;47.526;8.538;2023-08-20T13:10:50;96786.31;;;35.60;31.85
73024;BME280;61199;47.526;8.538;2023-08-20T13:13:17;96784.66;;;35.69;31.86
73024;BME280;61199;47.526;8.538;2023-08-20T13:15:46;96783.03;;;35.68;31.96